Time;durP1;ratioP1;P1;durP2;ratioP2;P2;SDS_P1;SDS_P2;PMS_P1;PMS_P2;Temp;Humidity;BMP_temperature;BMP_pressure;BME280_temperature;BME280_humidity;BME280_pressure;Samples;Min_cycle;Max_cycle;Signal;HPM_P1;HPM_P2
2021/03/22 00:02:25;;;;;;;1.80;1.70;;;6.00;99.90;;;;;;4989745;28;20612;-81
2021/03/22 00:04:50;;;;;;;0.90;0.82;;;6.00;99.90;;;;;;4993284;28;20030;-82
2021/03/22 00:07:16;;;;;;;4.85;2.63;;;6.00;99.90;;;;;;4990416;28;20019;-81
2021/03/22 00:09:42;;;;;;;2.78;1.58;;;6.10;99.90;;;;;;4989879;28;20092;-81
2021/03/22 00:12:08;;;;;;;0.77;0.77;;;6.10;99.90;;;;;;4988556;28;20050;-82
2021/03/22 00:14:34;;;;;;;3.05;1.70;;;6.10;99.90;;;;;;4996418;28;20578;-81
2021/03/22 00:17:00;;;;;;;1.85;1.52;;;6.10;99.90;;;;;;4980602;28;20077;-81
2021/03/22 00:19:29;;;;;;;0.40;0.40;;;6.00;99.90;;;;;;4989404;28;20042;-81
2021/03/22 00:21:55;;;;;;;1.08;1.08;;;6.10;99.90;;;;;;5001318;28;20284;-81
2021/03/22 00:24:21;;;;;;;0.50;0.50;;;6.00;99.90;;;;;;4989707;28;20487;-80
2021/03/22 00:26:46;;;;;;;1.65;1.55;;;6.00;99.90;;;;;;4988573;28;20118;-80
2021/03/22 00:29:12;;;;;;;0.55;0.47;;;6.00;99.90;;;;;;4988960;28;20030;-80
2021/03/22 00:31:38;;;;;;;1.10;1.10;;;6.00;99.90;;;;;;4988979;28;20045;-81
2021/03/22 00:34:03;;;;;;;6.90;1.77;;;6.00;99.90;;;;;;4988200;28;20557;-80
2021/03/22 00:36:29;;;;;;;4.40;2.50;;;6.00;99.90;;;;;;4989212;28;20406;-80
2021/03/22 00:38:55;;;;;;;1.90;1.80;;;6.00;99.90;;;;;;4992929;28;20033;-81
2021/03/22 00:41:23;;;;;;;4.75;2.78;;;6.00;99.90;;;;;;4992858;28;20041;-80
2021/03/22 00:43:49;;;;;;;2.58;1.60;;;6.00;99.90;;;;;;4988271;28;20407;-80
2021/03/22 00:46:15;;;;;;;2.70;2.50;;;6.00;99.90;;;;;;4988914;28;20034;-80
2021/03/22 00:48:41;;;;;;;0.73;0.70;;;5.90;99.90;;;;;;4986125;28;20137;-80
2021/03/22 00:51:07;;;;;;;1.65;1.10;;;5.80;99.90;;;;;;4989851;28;20034;-80
2021/03/22 00:53:34;;;;;;;4.70;2.37;;;5.70;99.90;;;;;;4994056;28;20026;-80
2021/03/22 00:56:00;;;;;;;0.47;0.47;;;5.50;99.90;;;;;;4988317;28;20027;-80
2021/03/22 00:58:27;;;;;;;2.10;1.67;;;5.20;99.90;;;;;;4984241;28;20038;-81
2021/03/22 01:00:56;;;;;;;1.52;1.42;;;5.10;99.90;;;;;;4988413;28;20054;-80
2021/03/22 01:03:31;;;;;;;0.32;0.32;;;4.90;99.90;;;;;;4986276;28;20023;-80
2021/03/22 01:05:57;;;;;;;1.02;1.02;;;4.90;99.90;;;;;;4988760;28;20544;-81
2021/03/22 01:08:27;;;;;;;1.25;1.15;;;4.80;99.90;;;;;;4987198;28;20038;-81
2021/03/22 01:10:55;;;;;;;0.93;0.88;;;4.70;99.90;;;;;;4987428;28;20030;-81
2021/03/22 01:13:23;;;;;;;0.40;0.40;;;4.60;99.90;;;;;;4987598;28;20030;-81
2021/03/22 01:15:50;;;;;;;0.52;0.52;;;4.50;99.90;;;;;;4987630;28;20054;-81
2021/03/22 01:18:21;;;;;;;3.80;3.50;;;4.30;99.90;;;;;;4972665;28;20045;-81
2021/03/22 01:20:54;;;;;;;3.55;1.33;;;4.10;99.90;;;;;;4987923;28;20053;-81
2021/03/22 01:23:20;;;;;;;4.72;1.60;;;4.10;99.90;;;;;;4984275;28;20076;-81
2021/03/22 01:25:46;;;;;;;2.28;1.10;;;4.00;99.90;;;;;;4988711;28;20494;-81
2021/03/22 01:28:14;;;;;;;0.70;0.70;;;4.10;99.90;;;;;;4986572;28;20046;-81
2021/03/22 01:30:44;;;;;;;4.28;2.67;;;3.90;99.90;;;;;;4986600;28;20415;-81
2021/03/22 01:33:13;;;;;;;0.50;0.50;;;3.80;99.90;;;;;;4991698;28;20081;-81
2021/03/22 01:35:39;;;;;;;1.88;0.90;;;3.70;99.90;;;;;;4988054;28;20034;-81
2021/03/22 01:38:06;;;;;;;0.95;0.70;;;3.60;99.90;;;;;;4986738;28;20908;-81
2021/03/22 01:41:13;;;;;;;0.90;0.90;;;3.70;99.90;;;;;;4986801;28;22489;-80
2021/03/22 01:44:10;;;;;;;0.82;0.82;;;3.80;99.90;;;;;;4987129;28;20466;-80
2021/03/22 01:46:37;;;;;;;0.93;0.93;;;3.70;99.90;;;;;;4987742;28;20076;-80
2021/03/22 01:49:05;;;;;;;;;;;3.90;99.90;;;;;;4988262;28;20634;-80
2021/03/22 01:51:31;;;;;;;1.13;1.13;;;3.90;99.90;;;;;;4988492;28;19909;-80
2021/03/22 01:53:59;;;;;;;8.15;1.98;;;4.00;99.90;;;;;;4987702;28;20628;-80
2021/03/22 01:56:24;;;;;;;;;;;3.90;99.90;;;;;;4991949;28;20029;-80
2021/03/22 01:58:52;;;;;;;1.10;1.10;;;3.90;99.90;;;;;;4986921;28;19925;-80
2021/03/22 02:01:21;;;;;;;2.63;1.95;;;3.80;99.90;;;;;;4981169;28;20033;-80
2021/03/22 02:03:47;;;;;;;3.20;2.15;;;3.80;99.90;;;;;;4984848;28;20026;-80
2021/03/22 02:06:14;;;;;;;0.75;0.75;;;3.70;99.90;;;;;;4986782;28;20057;-79
2021/03/22 02:08:43;;;;;;;0.80;0.80;;;3.50;99.90;;;;;;4986539;28;20447;-80
2021/03/22 02:11:21;;;;;;;1.20;1.10;;;3.50;99.90;;;;;;4982353;28;20534;-80
2021/03/22 02:13:48;;;;;;;0.50;0.50;;;3.60;99.90;;;;;;4988087;28;20592;-81
2021/03/22 02:16:20;;;;;;;0.40;0.40;;;3.50;99.90;;;;;;4991806;28;20054;-81
2021/03/22 02:18:55;;;;;;;0.75;0.75;;;3.80;99.90;;;;;;4992120;28;20122;-80
2021/03/22 02:21:40;;;;;;;0.32;0.32;;;3.80;99.90;;;;;;4991316;28;20026;-80
2021/03/22 02:24:23;;;;;;;0.50;0.50;;;3.80;99.90;;;;;;4987835;28;20504;-80
2021/03/22 02:27:16;;;;;;;0.40;0.40;;;3.70;99.90;;;;;;4990680;28;20031;-79
2021/03/22 02:30:16;;;;;;;0.60;0.60;;;3.80;99.90;;;;;;4990959;28;20057;-80
2021/03/22 02:33:16;;;;;;;0.70;0.68;;;3.70;99.90;;;;;;4990621;28;20029;-80
2021/03/22 02:36:13;;;;;;;1.50;1.40;;;3.50;99.90;;;;;;4984176;28;20038;-80
2021/03/22 02:38:58;;;;;;;0.63;0.63;;;3.50;99.90;;;;;;4989043;28;20030;-80
2021/03/22 02:41:31;;;;;;;0.68;0.68;;;3.40;99.90;;;;;;4990624;28;20486;-80
2021/03/22 02:44:09;;;;;;;0.60;0.60;;;3.50;99.90;;;;;;4991540;28;20021;-80
2021/03/22 02:46:35;;;;;;;0.70;0.68;;;3.40;99.90;;;;;;4990584;28;20494;-80
2021/03/22 02:49:04;;;;;;;1.98;1.88;;;3.30;99.90;;;;;;4978856;28;20030;-80
2021/03/22 02:51:36;;;;;;;1.80;1.27;;;3.30;99.90;;;;;;4990550;28;20041;-80
2021/03/22 02:54:28;;;;;;;0.63;0.63;;;3.30;1.00;;;;;;4989615;28;20058;-80
2021/03/22 02:57:02;;;;;;;1.15;1.08;;;3.60;1.00;;;;;;4973882;28;20880;-80
2021/03/22 02:59:33;;;;;;;1.08;0.63;;;3.50;1.00;;;;;;4968811;28;20794;-80
2021/03/22 03:02:02;;;;;;;0.30;0.30;;;3.70;1.00;;;;;;4968733;28;20035;-79
2021/03/22 03:04:30;;;;;;;0.60;0.60;;;3.60;1.00;;;;;;4969128;28;20037;-80
2021/03/22 03:07:01;;;;;;;1.55;1.55;;;3.50;1.00;;;;;;4969083;28;20041;-80
2021/03/22 03:09:33;;;;;;;1.27;1.25;;;3.50;1.00;;;;;;4968335;28;20038;-80
2021/03/22 03:12:23;;;;;;;1.50;1.40;;;3.30;1.00;;;;;;4963396;28;20634;-80
2021/03/22 03:14:52;;;;;;;0.85;0.85;;;3.10;1.00;;;;;;4974193;28;20305;-80
2021/03/22 03:17:20;;;;;;;1.08;0.73;;;3.00;1.00;;;;;;4958368;28;20715;-80
2021/03/22 03:19:46;;;;;;;1.85;0.90;;;3.10;1.90;;;;;;4968372;28;20050;-80
2021/03/22 03:22:12;;;;;;;;;;;3.30;78.90;;;;;;4967951;28;20051;-80
2021/03/22 03:24:40;;;;;;;0.70;0.70;;;3.20;99.90;;;;;;4968315;28;19917;-79
2021/03/22 03:27:07;;;;;;;0.28;0.28;;;3.20;99.90;;;;;;4966209;28;20039;-80
2021/03/22 03:29:33;;;;;;;0.50;0.50;;;3.20;99.90;;;;;;4968162;28;20118;-80
2021/03/22 03:31:59;;;;;;;0.57;0.57;;;3.30;99.90;;;;;;4967819;28;20122;-80
2021/03/22 03:34:25;;;;;;;13.63;1.80;;;3.30;99.90;;;;;;4983627;28;20042;-81
2021/03/22 03:36:51;;;;;;;1.87;1.73;;;3.20;99.90;;;;;;4988594;28;20034;-80
2021/03/22 03:39:17;;;;;;;3.97;1.05;;;3.10;99.90;;;;;;4984349;28;20027;-81
2021/03/22 03:41:43;;;;;;;1.58;1.48;;;3.00;99.90;;;;;;4988146;28;20033;-81
2021/03/22 03:44:11;;;;;;;0.93;0.93;;;2.90;99.90;;;;;;4990677;28;20105;-81
2021/03/22 03:46:38;;;;;;;1.30;1.30;;;2.90;1.00;;;;;;4989276;28;20030;-80
2021/03/22 03:49:05;;;;;;;2.47;1.63;;;2.80;1.00;;;;;;4989862;28;20038;-80
2021/03/22 03:51:31;;;;;;;1.15;1.15;;;2.80;99.90;;;;;;4990263;28;20034;-80
2021/03/22 03:53:58;;;;;;;4.22;1.45;;;2.70;99.90;;;;;;4989310;28;20230;-81
2021/03/22 03:56:26;;;;;;;3.65;3.30;;;2.70;99.90;;;;;;4987141;28;20034;-80
2021/03/22 03:58:52;;;;;;;1.85;1.75;;;2.70;1.00;;;;;;4981079;28;20037;-80
2021/03/22 04:01:18;;;;;;;0.25;0.25;;;2.70;99.90;;;;;;4988673;28;20030;-79
2021/03/22 04:03:44;;;;;;;1.38;1.33;;;2.60;99.90;;;;;;4989695;28;20509;-80
2021/03/22 04:06:12;;;;;;;7.25;1.42;;;2.60;99.90;;;;;;4989098;28;20469;-80
2021/03/22 04:08:41;;;;;;;0.80;0.80;;;2.50;1.00;;;;;;4988342;28;20030;-80
2021/03/22 04:11:10;;;;;;;0.80;0.80;;;2.50;99.90;;;;;;4989274;28;20053;-80
2021/03/22 04:13:36;;;;;;;0.90;0.90;;;2.60;1.00;;;;;;4987465;28;20033;-80
2021/03/22 04:16:04;;;;;;;2.20;2.05;;;2.50;1.00;;;;;;4987519;28;20050;-80
2021/03/22 04:18:30;;;;;;;1.95;1.83;;;2.50;99.90;;;;;;4988200;28;20096;-80
2021/03/22 04:20:56;;;;;;;0.60;0.60;;;2.60;99.90;;;;;;4989653;28;20030;-80
2021/03/22 04:23:22;;;;;;;9.38;2.00;;;2.60;99.90;;;;;;4988424;28;20031;-80
2021/03/22 04:25:48;;;;;;;0.43;0.43;;;2.50;99.90;;;;;;4989680;28;20028;-80
2021/03/22 04:28:13;;;;;;;1.85;0.90;;;2.60;99.90;;;;;;4988657;28;20100;-80
2021/03/22 04:30:39;;;;;;;1.13;1.10;;;2.40;99.90;;;;;;4980757;28;20027;-79
2021/03/22 04:33:05;;;;;;;0.85;0.85;;;2.70;99.90;;;;;;4986234;28;20058;-80
2021/03/22 04:35:31;;;;;;;0.75;0.75;;;2.70;60.60;;;;;;4988884;28;20577;-80
2021/03/22 04:37:57;;;;;;;0.60;0.60;;;2.60;1.00;;;;;;4988812;28;20117;-80
2021/03/22 04:40:25;;;;;;;1.08;1.02;;;2.50;1.00;;;;;;4989153;28;20102;-81
2021/03/22 04:42:51;;;;;;;1.33;1.27;;;2.60;99.90;;;;;;4984412;28;20113;-80
2021/03/22 04:45:27;;;;;;;1.73;1.63;;;2.50;99.90;;;;;;4989252;28;20097;-80
2021/03/22 04:47:53;;;;;;;2.78;2.58;;;2.50;99.90;;;;;;4984251;28;20165;-80
2021/03/22 04:50:21;;;;;;;2.50;1.57;;;2.60;99.90;;;;;;4988296;28;20034;-80
2021/03/22 04:52:47;;;;;;;1.45;1.17;;;2.60;1.00;;;;;;4982953;28;20035;-80
2021/03/22 04:55:14;;;;;;;2.15;1.52;;;2.50;90.00;;;;;;4980913;28;20037;-80
2021/03/22 04:57:40;;;;;;;0.50;0.50;;;2.80;99.90;;;;;;4987075;28;20129;-80
2021/03/22 05:00:14;;;;;;;1.30;1.30;;;2.80;99.90;;;;;;4988784;28;20129;-80
2021/03/22 05:02:39;;;;;;;3.42;1.27;;;2.60;99.90;;;;;;4986338;28;20077;-79
2021/03/22 05:05:06;;;;;;;0.60;0.60;;;2.50;99.90;;;;;;4979554;28;20035;-79
2021/03/22 05:07:32;;;;;;;2.30;1.55;;;2.40;99.90;;;;;;4987876;28;20029;-79
2021/03/22 05:09:58;;;;;;;2.65;1.58;;;2.50;1.00;;;;;;4988428;28;20030;-80
2021/03/22 05:12:24;;;;;;;1.25;1.17;;;2.40;99.90;;;;;;4985683;28;20549;-79
2021/03/22 05:14:50;;;;;;;0.98;0.98;;;2.50;1.00;;;;;;4987498;28;20041;-80
2021/03/22 05:17:16;;;;;;;1.75;1.65;;;2.60;99.90;;;;;;4988100;28;20558;-80
2021/03/22 05:19:41;;;;;;;0.85;0.85;;;2.60;99.90;;;;;;4986390;28;20022;-80
2021/03/22 05:22:07;;;;;;;1.73;1.63;;;2.70;99.90;;;;;;4973731;28;20059;-80
2021/03/22 05:24:33;;;;;;;0.75;0.75;;;2.60;1.00;;;;;;4984658;28;20030;-79
2021/03/22 05:27:00;;;;;;;2.47;2.30;;;2.60;99.90;;;;;;4988559;28;20030;-80
2021/03/22 05:29:26;;;;;;;0.85;0.85;;;2.70;99.90;;;;;;4987199;28;20027;-80
2021/03/22 05:31:53;;;;;;;0.95;0.95;;;2.70;99.90;;;;;;4981223;28;20085;-80
2021/03/22 05:34:19;;;;;;;0.70;0.70;;;2.80;1.00;;;;;;4987330;28;20037;-80
2021/03/22 05:36:45;;;;;;;0.60;0.60;;;2.80;99.90;;;;;;4987378;28;20038;-80
2021/03/22 05:39:11;;;;;;;0.45;0.45;;;2.90;1.00;;;;;;4987104;28;20080;-80
2021/03/22 05:41:57;;;;;;;0.65;0.65;;;2.90;99.90;;;;;;4988445;28;20019;-80
2021/03/22 05:44:32;;;;;;;0.60;0.60;;;2.80;86.00;;;;;;4985281;28;20660;-80
2021/03/22 05:47:04;;;;;;;0.60;0.60;;;3.00;99.90;;;;;;4983925;28;20085;-81
2021/03/22 05:49:50;;;;;;;0.60;0.60;;;2.90;1.00;;;;;;4983039;28;20054;-80
2021/03/22 05:52:38;;;;;;;1.90;0.65;;;3.00;99.90;;;;;;4979482;28;20379;-81
2021/03/22 05:55:21;;;;;;;1.33;1.23;;;2.90;99.90;;;;;;4989951;28;20727;-81
2021/03/22 05:58:16;;;;;;;0.63;0.63;;;3.10;23.00;;;;;;4986769;28;20463;-80
2021/03/22 06:00:47;;;;;;;0.25;0.25;;;3.20;1.00;;;;;;4987305;28;20022;-82
2021/03/22 06:03:20;;;;;;;0.95;0.95;;;3.10;1.00;;;;;;4990140;28;20037;-80
2021/03/22 06:05:55;;;;;;;4.07;2.17;;;3.20;99.90;;;;;;4985290;28;20031;-81
2021/03/22 06:08:52;;;;;;;0.80;0.80;;;3.40;99.90;;;;;;4990630;28;20034;-81
2021/03/22 06:11:26;;;;;;;;;;;3.90;99.90;;;;;;4985506;28;20479;-81
2021/03/22 06:14:19;;;;;;;0.65;0.65;;;4.20;99.90;;;;;;4982093;28;19917;-81
2021/03/22 06:16:52;;;;;;;0.77;0.77;;;4.40;99.90;;;;;;4985698;28;20423;-82
2021/03/22 06:19:18;;;;;;;0.40;0.40;;;4.80;99.90;;;;;;4987703;28;20088;-82
2021/03/22 06:21:49;;;;;;;0.40;0.40;;;5.20;99.90;;;;;;4992102;28;20030;-82
2021/03/22 06:24:17;;;;;;;0.40;0.40;;;6.00;99.90;;;;;;4991442;28;20041;-83
2021/03/22 06:26:48;;;;;;;0.57;0.47;;;6.40;99.90;;;;;;4998468;28;20034;-81
2021/03/22 06:29:34;;;;;;;0.68;0.65;;;7.10;99.90;;;;;;4996362;28;20073;-82
2021/03/22 06:32:03;;;;;;;0.30;0.30;;;7.50;99.90;;;;;;5000586;28;20040;-82
2021/03/22 06:34:56;;;;;;;0.90;0.90;;;8.30;99.90;;;;;;4993696;28;20240;-82
2021/03/22 06:37:36;;;;;;;1.30;1.15;;;8.10;99.90;;;;;;4991803;28;20026;-82
2021/03/22 06:40:28;;;;;;;0.45;0.45;;;8.60;99.90;;;;;;4990703;28;20018;-82
2021/03/22 06:43:29;;;;;;;0.43;0.43;;;9.00;99.90;;;;;;4988431;28;20023;-82
2021/03/22 06:46:12;;;;;;;1.42;1.33;;;9.40;99.90;;;;;;4943309;28;20883;-82
2021/03/22 06:48:39;;;;;;;0.60;0.60;;;9.80;99.90;;;;;;4933486;29;20040;-82
2021/03/22 06:51:04;;;;;;;7.68;2.70;;;9.30;99.90;;;;;;4942036;29;20081;-82
2021/03/22 06:53:46;;;;;;;1.63;1.52;;;9.60;99.90;;;;;;4933285;29;20463;-83
2021/03/22 06:56:28;;;;;;;0.38;0.38;;;10.20;99.90;;;;;;4940517;28;20126;-83
2021/03/22 06:59:14;;;;;;;2.00;1.02;;;10.30;99.90;;;;;;4937671;28;20119;-83
2021/03/22 07:01:43;;;;;;;3.10;2.23;;;10.20;99.90;;;;;;4941364;28;20098;-83
2021/03/22 07:04:25;;;;;;;0.75;0.75;;;10.80;99.90;;;;;;4935003;29;20693;-83
2021/03/22 07:07:09;;;;;;;0.63;0.60;;;11.50;99.90;;;;;;4937399;28;20035;-83
2021/03/22 07:09:37;;;;;;;0.20;0.20;;;11.00;99.90;;;;;;4934554;28;20071;-83
2021/03/22 07:12:09;;;;;;;1.48;1.10;;;10.40;99.90;;;;;;4946065;28;20467;-83
2021/03/22 07:14:35;;;;;;;2.60;0.68;;;10.80;99.90;;;;;;4949919;29;20118;-83
2021/03/22 07:17:02;;;;;;;0.50;0.50;;;10.80;99.90;;;;;;4950147;29;20130;-82
2021/03/22 07:19:28;;;;;;;0.35;0.35;;;11.20;99.90;;;;;;4950434;29;20035;-82
2021/03/22 07:21:58;;;;;;;0.28;0.28;;;10.90;99.90;;;;;;4951347;28;20019;-83
2021/03/22 07:24:50;;;;;;;0.08;0.08;;;11.10;99.90;;;;;;4991455;28;20022;-83
2021/03/22 07:27:48;;;;;;;1.48;1.38;;;10.80;99.90;;;;;;4991573;28;20073;-83
2021/03/22 07:31:05;;;;;;;0.43;0.43;;;10.10;99.90;;;;;;4991166;28;20033;-83
2021/03/22 07:33:49;;;;;;;0.60;0.60;;;9.90;99.90;;;;;;4963689;28;20551;-82
2021/03/22 07:36:29;;;;;;;0.65;0.65;;;10.40;99.90;;;;;;4969456;28;20066;-83
2021/03/22 07:39:04;;;;;;;0.73;0.73;;;10.40;99.90;;;;;;4959674;28;20043;-83
2021/03/22 07:41:39;;;;;;;0.90;0.90;;;10.40;99.90;;;;;;4958565;28;20031;-85
2021/03/22 07:44:24;;;;;;;0.10;0.10;;;10.60;99.90;;;;;;4959589;28;20538;-83
2021/03/22 07:47:07;;;;;;;0.50;0.45;;;11.30;99.90;;;;;;4952465;28;20032;-83
2021/03/22 07:49:55;;;;;;;0.73;0.73;;;12.10;99.90;;;;;;4965909;28;20027;-83
2021/03/22 07:52:38;;;;;;;1.33;1.23;;;13.50;99.90;;;;;;4958652;28;20121;-84
2021/03/22 07:55:22;;;;;;;0.65;0.63;;;13.90;99.90;;;;;;4966781;28;20540;-84
2021/03/22 07:58:04;;;;;;;0.20;0.20;;;14.40;99.90;;;;;;4964486;28;20558;-85
2021/03/22 08:00:35;;;;;;;0.95;0.95;;;13.80;99.90;;;;;;4964979;28;20030;-84
2021/03/22 08:03:29;;;;;;;0.90;0.90;;;13.80;99.90;;;;;;4937617;28;20031;-83
2021/03/22 08:06:25;;;;;;;0.75;0.68;;;14.60;99.90;;;;;;4982896;28;20031;-85
2021/03/22 08:09:10;;;;;;;0.50;0.50;;;15.40;99.90;;;;;;4987137;28;20034;-85
2021/03/22 08:11:48;;;;;;;0.40;0.40;;;15.80;99.90;;;;;;4984847;28;20029;-87
2021/03/22 08:14:35;;;;;;;0.15;0.15;;;13.80;99.90;;;;;;4970664;28;20039;-86
2021/03/22 08:17:07;;;;;;;0.30;0.30;;;12.70;99.90;;;;;;4990421;28;20050;-87
2021/03/22 08:19:48;;;;;;;0.20;0.20;;;11.40;99.90;;;;;;4990713;28;20032;-87
2021/03/22 08:22:55;;;;;;;0.20;0.20;;;14.20;99.90;;;;;;4989869;28;20038;-87
2021/03/22 08:25:42;;;;;;;4.38;1.45;;;15.00;99.90;;;;;;4995170;28;20030;-86
2021/03/22 08:28:22;;;;;;;0.47;0.47;;;13.10;99.90;;;;;;4989980;28;20030;-87
2021/03/22 08:31:07;;;;;;;0.55;0.55;;;14.70;99.90;;;;;;4989402;28;20117;-87
2021/03/22 08:33:41;;;;;;;0.70;0.70;;;16.00;99.90;;;;;;4977499;28;20018;-87
2021/03/22 08:36:26;;;;;;;0.20;0.20;;;16.30;99.90;;;;;;4990409;28;20032;-87
2021/03/22 08:39:21;;;;;;;0.25;0.25;;;15.30;99.90;;;;;;4980760;28;20033;-87
2021/03/22 08:42:07;;;;;;;0.20;0.20;;;14.80;99.90;;;;;;4988000;28;20027;-87
2021/03/22 08:45:02;;;;;;;0.57;0.57;;;16.50;99.90;;;;;;4990196;28;20061;-88
2021/03/22 08:47:51;;;;;;;0.30;0.30;;;15.10;99.90;;;;;;4984588;28;20022;-88
2021/03/22 08:50:29;;;;;;;0.25;0.25;;;16.40;99.90;;;;;;4994447;28;20030;-87
2021/03/22 08:52:57;;;;;;;1.10;0.55;;;15.00;99.90;;;;;;4998235;28;20035;-87
2021/03/22 08:55:46;;;;;;;0.10;0.10;;;15.30;99.90;;;;;;5002301;28;20031;-87
2021/03/22 08:58:22;;;;;;;0.43;0.35;;;17.40;99.90;;;;;;4988373;28;20034;-88
2021/03/22 09:00:50;;;;;;;0.20;0.20;;;16.30;99.90;;;;;;4990138;28;20022;-88
2021/03/22 09:03:16;;;;;;;0.45;0.45;;;14.90;99.90;;;;;;4988328;28;20079;-87
2021/03/22 09:06:04;;;;;;;4.03;2.38;;;15.70;99.90;;;;;;4988796;28;20018;-87
2021/03/22 09:08:40;;;;;;;0.10;0.10;;;15.70;99.90;;;;;;4989438;28;20057;-88
2021/03/22 09:11:27;;;;;;;1.00;0.82;;;16.10;99.90;;;;;;4975456;28;20029;-87
2021/03/22 09:14:00;;;;;;;0.10;0.10;;;16.60;99.90;;;;;;4974802;28;20511;-87
2021/03/22 09:16:42;;;;;;;0.20;0.20;;;14.90;99.90;;;;;;4987334;28;20050;-88
2021/03/22 09:19:12;;;;;;;0.63;0.63;;;15.80;99.90;;;;;;4989081;28;20108;-87
2021/03/22 09:21:38;;;;;;;2.28;0.75;;;16.00;99.90;;;;;;4983701;28;20518;-88
2021/03/22 09:24:24;;;;;;;0.20;0.20;;;16.30;99.90;;;;;;4994003;28;20038;-88
2021/03/22 09:26:50;;;;;;;;;;;19.70;99.90;;;;;;4980929;28;20274;-87
2021/03/22 09:29:31;;;;;;;0.27;0.27;;;20.30;99.90;;;;;;4989535;28;19910;-87
2021/03/22 09:31:58;;;;;;;0.63;0.38;;;18.80;99.90;;;;;;4985811;28;20033;-87
2021/03/22 09:34:30;;;;;;;0.38;0.38;;;19.50;99.90;;;;;;4988689;28;20026;-87
2021/03/22 09:36:57;;;;;;;0.35;0.35;;;20.60;99.90;;;;;;4982581;28;20030;-87
2021/03/22 09:39:22;;;;;;;;;;;20.80;99.90;;;;;;4991117;28;20031;-87
2021/03/22 09:42:07;;;;;;;0.57;0.50;;;21.30;99.90;;;;;;4990349;28;19993;-87
2021/03/22 09:44:57;;;;;;;1.13;0.75;;;19.40;99.90;;;;;;4981678;28;20040;-87
2021/03/22 09:47:30;;;;;;;0.25;0.25;;;18.00;99.90;;;;;;4987648;28;20069;-87
2021/03/22 09:50:01;;;;;;;2.05;0.57;;;16.70;99.90;;;;;;4999301;28;20031;-86
2021/03/22 09:52:29;;;;;;;0.50;0.50;;;17.00;99.90;;;;;;4988743;28;20030;-87
2021/03/22 09:54:56;;;;;;;0.20;0.20;;;17.20;99.90;;;;;;4984175;28;20034;-87
2021/03/22 09:57:29;;;;;;;0.20;0.20;;;18.70;99.90;;;;;;4994971;28;20494;-87
2021/03/22 10:00:40;;;;;;;0.70;0.70;;;18.50;99.90;;;;;;4988754;28;20024;-87
2021/03/22 10:03:28;;;;;;;0.10;0.10;;;18.30;99.90;;;;;;4983379;28;20038;-87
2021/03/22 10:05:56;;;;;;;0.30;0.30;;;16.90;99.90;;;;;;4978850;28;20058;-87
2021/03/22 10:08:25;;;;;;;0.22;0.22;;;18.80;99.90;;;;;;4988171;28;20109;-87
2021/03/22 10:11:22;;;;;;;0.13;0.13;;;18.00;99.90;;;;;;4985021;28;20038;-88
2021/03/22 10:13:49;;;;;;;0.20;0.20;;;18.30;99.90;;;;;;4983128;28;20093;-87
2021/03/22 10:16:22;;;;;;;0.10;0.10;;;20.00;99.90;;;;;;4988222;28;20053;-87
2021/03/22 10:18:56;;;;;;;1.17;0.50;;;18.60;99.90;;;;;;4987394;28;20034;-88
2021/03/22 10:21:29;;;;;;;0.45;0.45;;;20.50;99.90;;;;;;4987106;28;20105;-87
2021/03/22 10:23:59;;;;;;;0.47;0.47;;;20.40;99.90;;;;;;4987941;28;20033;-88
2021/03/22 10:26:36;;;;;;;0.10;0.10;;;20.00;99.90;;;;;;4974406;28;20042;-87
2021/03/22 10:29:12;;;;;;;0.20;0.20;;;22.70;99.90;;;;;;4978841;28;20026;-88
2021/03/22 10:31:39;;;;;;;0.50;0.50;;;21.60;99.90;;;;;;4986866;28;20034;-87
2021/03/22 10:34:04;;;;;;;;;;;20.30;99.90;;;;;;4988246;28;20038;-87
2021/03/22 10:36:36;;;;;;;0.47;0.40;;;19.50;99.90;;;;;;4989175;28;20658;-88
2021/03/22 10:39:06;;;;;;;0.93;0.85;;;20.70;99.90;;;;;;4989539;28;20018;-88
2021/03/22 10:41:38;;;;;;;0.75;0.70;;;21.10;99.90;;;;;;4990640;28;20030;-87
2021/03/22 10:44:15;;;;;;;0.60;0.60;;;20.70;99.90;;;;;;4990596;28;20033;-88
2021/03/22 10:46:42;;;;;;;1.05;1.00;;;19.60;99.90;;;;;;4989572;28;20025;-87
2021/03/22 10:49:14;;;;;;;1.35;0.73;;;20.30;99.90;;;;;;4989918;28;20030;-87
2021/03/22 10:51:43;;;;;;;0.90;0.68;;;21.10;99.90;;;;;;4991478;28;20507;-87
2021/03/22 10:54:12;;;;;;;0.13;0.13;;;18.10;99.90;;;;;;4990979;28;20034;-87
2021/03/22 10:56:54;;;;;;;0.20;0.20;;;19.60;99.90;;;;;;4990641;28;20026;-87
2021/03/22 10:59:26;;;;;;;0.20;0.20;;;23.30;99.90;;;;;;4989351;28;20324;-87
2021/03/22 11:01:55;;;;;;;0.55;0.55;;;21.00;99.90;;;;;;4990851;28;20023;-87
2021/03/22 11:04:28;;;;;;;0.85;0.70;;;20.30;99.90;;;;;;4990196;28;20791;-87
2021/03/22 11:06:56;;;;;;;0.10;0.10;;;20.50;99.90;;;;;;4990245;28;20026;-87
2021/03/22 11:09:30;;;;;;;0.13;0.13;;;21.30;99.90;;;;;;4991336;28;20026;-86
2021/03/22 11:11:58;;;;;;;0.20;0.20;;;20.60;99.90;;;;;;4991462;28;20430;-87
2021/03/22 11:14:28;;;;;;;0.95;0.70;;;20.50;99.90;;;;;;4991271;28;20033;-87
2021/03/22 11:16:55;;;;;;;0.43;0.28;;;20.10;99.90;;;;;;4990237;28;20046;-87
2021/03/22 11:19:39;;;;;;;0.28;0.28;;;20.00;99.90;;;;;;4991548;28;20035;-86
2021/03/22 11:22:23;;;;;;;0.40;0.40;;;19.50;99.90;;;;;;4990352;28;20030;-87
2021/03/22 11:24:50;;;;;;;0.68;0.68;;;18.60;99.90;;;;;;4991682;28;20572;-87
2021/03/22 11:27:16;;;;;;;0.85;0.85;;;18.40;99.90;;;;;;4990046;28;20030;-87
2021/03/22 11:29:54;;;;;;;0.55;0.55;;;19.00;99.90;;;;;;4991582;28;20101;-88
2021/03/22 11:32:22;;;;;;;0.43;0.40;;;18.40;99.90;;;;;;4989678;28;20403;-87
2021/03/22 11:34:48;;;;;;;0.32;0.32;;;19.70;99.90;;;;;;4991324;28;20026;-87
2021/03/22 11:37:22;;;;;;;6.22;0.75;;;19.00;99.90;;;;;;4989702;28;20026;-87
2021/03/22 11:39:55;;;;;;;0.20;0.20;;;19.20;99.90;;;;;;4991030;28;20035;-87
2021/03/22 11:42:34;;;;;;;1.40;1.33;;;19.40;99.90;;;;;;4990987;28;20022;-87
2021/03/22 11:45:19;;;;;;;0.10;0.10;;;17.70;99.90;;;;;;4991359;28;20153;-87
2021/03/22 11:47:45;;;;;;;0.10;0.10;;;15.00;99.90;;;;;;4990474;28;20018;-87
2021/03/22 11:50:28;;;;;;;0.10;0.10;;;14.00;99.90;;;;;;4989754;28;20023;-87
2021/03/22 11:53:04;;;;;;;1.30;0.45;;;14.30;99.90;;;;;;4989485;28;20026;-87
2021/03/22 11:55:32;;;;;;;0.52;0.52;;;13.90;99.90;;;;;;4989171;28;20050;-87
2021/03/22 11:57:58;;;;;;;0.10;0.10;;;14.00;99.90;;;;;;4989202;28;20061;-88
2021/03/22 12:00:31;;;;;;;0.05;0.05;;;14.10;99.90;;;;;;4988781;28;20038;-87
2021/03/22 12:03:13;;;;;;;0.10;0.10;;;13.50;99.90;;;;;;4990654;28;20498;-87
2021/03/22 12:05:41;;;;;;;0.70;0.70;;;13.50;99.90;;;;;;4990553;28;20578;-86
2021/03/22 12:08:29;;;;;;;0.10;0.10;;;13.50;99.90;;;;;;4990519;28;20038;-87
2021/03/22 12:10:55;;;;;;;0.30;0.30;;;14.30;99.90;;;;;;4975931;28;20596;-87
2021/03/22 12:13:21;;;;;;;0.10;0.10;;;14.00;99.90;;;;;;4988831;28;20062;-85
2021/03/22 12:15:47;;;;;;;0.15;0.15;;;13.80;99.90;;;;;;4988499;28;20050;-87
2021/03/22 12:18:30;;;;;;;0.73;0.23;;;13.40;99.90;;;;;;4988837;28;20121;-87
2021/03/22 12:20:56;;;;;;;0.25;0.25;;;13.50;99.90;;;;;;4988748;28;20038;-87
2021/03/22 12:23:22;;;;;;;0.80;0.55;;;13.50;99.90;;;;;;4990224;28;20015;-88
2021/03/22 12:25:48;;;;;;;1.30;0.43;;;13.50;99.90;;;;;;4988654;28;20053;-89
2021/03/22 12:28:14;;;;;;;0.25;0.22;;;13.60;99.90;;;;;;4989842;28;20506;-88
2021/03/22 12:30:39;;;;;;;3.22;0.75;;;13.70;99.90;;;;;;4988427;28;20081;-87
2021/03/22 12:33:05;;;;;;;0.57;0.57;;;14.00;99.90;;;;;;4988418;28;20030;-87
2021/03/22 12:35:36;;;;;;;0.30;0.20;;;14.00;99.90;;;;;;4988622;28;20451;-87
2021/03/22 12:38:03;;;;;;;0.10;0.10;;;13.80;99.90;;;;;;4989520;28;20034;-88
2021/03/22 12:40:29;;;;;;;0.22;0.22;;;14.00;99.90;;;;;;4988378;28;20022;-87
2021/03/22 12:42:56;;;;;;;0.30;0.20;;;13.70;99.90;;;;;;4988527;28;20033;-88
2021/03/22 12:45:29;;;;;;;0.00;0.00;;;13.80;99.90;;;;;;4988490;28;20022;-87
2021/03/22 12:47:56;;;;;;;0.22;0.22;;;13.90;99.90;;;;;;4988602;28;20438;-87
2021/03/22 12:50:32;;;;;;;0.10;0.10;;;13.80;99.90;;;;;;4988227;28;20490;-87
2021/03/22 12:52:59;;;;;;;2.38;0.90;;;13.70;99.90;;;;;;4988222;28;20110;-87
2021/03/22 12:55:27;;;;;;;2.25;1.45;;;14.00;99.90;;;;;;4989786;28;20018;-87
2021/03/22 12:57:57;;;;;;;1.88;1.20;;;13.90;99.90;;;;;;4989288;28;20018;-87
2021/03/22 13:00:25;;;;;;;0.30;0.30;;;13.50;99.90;;;;;;4989425;28;20014;-87
2021/03/22 13:02:51;;;;;;;0.00;0.00;;;13.60;99.90;;;;;;4989164;28;20773;-87
2021/03/22 13:05:26;;;;;;;0.22;0.22;;;13.90;99.90;;;;;;4987986;28;20031;-87
2021/03/22 13:07:53;;;;;;;0.28;0.28;;;13.60;99.90;;;;;;4989163;28;20027;-86
2021/03/22 13:10:19;;;;;;;;;;;14.10;99.90;;;;;;4988653;28;20030;-87
2021/03/22 13:12:45;;;;;;;6.43;0.47;;;13.80;99.90;;;;;;4989041;28;19918;-87
2021/03/22 13:15:31;;;;;;;0.20;0.20;;;13.60;99.90;;;;;;4988081;28;20053;-87
2021/03/22 13:17:58;;;;;;;0.40;0.40;;;13.40;99.90;;;;;;4988544;28;20490;-88
2021/03/22 13:20:26;;;;;;;0.70;0.70;;;13.50;99.90;;;;;;4989401;28;20037;-88
2021/03/22 13:22:52;;;;;;;0.20;0.20;;;13.50;99.90;;;;;;4987391;28;20015;-87
2021/03/22 13:25:19;;;;;;;0.20;0.20;;;13.60;99.90;;;;;;4987962;28;20034;-87
2021/03/22 13:27:47;;;;;;;0.10;0.10;;;13.70;99.90;;;;;;4989091;28;20073;-87